createdAt,value
2022-08-05T00:02:07.233Z,71.63
2022-08-05T00:04:10.758Z,72.01
2022-08-05T00:06:29.171Z,72.23
2022-08-05T00:08:36.429Z,72.34
2022-08-05T00:10:39.103Z,72.80
2022-08-05T00:12:56.150Z,72.61
2022-08-05T00:14:59.637Z,72.65
2022-08-05T00:17:22.476Z,72.90
2022-08-05T00:19:33.480Z,73.06
2022-08-05T00:21:43.251Z,72.96
2022-08-05T00:24:06.147Z,72.83
2022-08-05T00:26:10.743Z,73.81
2022-08-05T00:28:14.014Z,74.19
2022-08-05T00:30:16.654Z,74.45
2022-08-05T00:32:20.502Z,74.59
2022-08-05T00:34:56.351Z,74.92
2022-08-05T00:37:11.837Z,74.66
2022-08-05T00:39:14.291Z,74.96
2022-08-05T00:41:51.729Z,75.13
2022-08-05T00:43:53.764Z,75.05
2022-08-05T00:45:56.407Z,75.23
2022-08-05T00:48:05.164Z,75.43
2022-08-05T00:50:10.092Z,75.87
2022-08-05T00:52:12.764Z,76.09
2022-08-05T00:54:16.030Z,75.62
2022-08-05T00:56:22.813Z,75.02
2022-08-05T00:58:27.445Z,75.72
2022-08-05T01:00:31.637Z,75.53
2022-08-05T01:02:34.228Z,76.00
2022-08-05T01:04:36.867Z,75.57
2022-08-05T01:06:48.683Z,75.72
2022-08-05T01:08:54.098Z,76.27
2022-08-05T01:11:14.850Z,76.76
2022-08-05T01:13:58.525Z,76.86
2022-08-05T01:16:05.203Z,76.64
2022-08-05T01:18:15.244Z,76.69
2022-08-05T01:20:37.067Z,76.39
2022-08-05T01:23:34.984Z,76.36
2022-08-05T01:26:15.387Z,76.43
2022-08-05T01:28:42.552Z,76.98
2022-08-05T01:30:55.356Z,76.84
2022-08-05T01:33:00.710Z,77.23
2022-08-05T01:35:10.654Z,77.57
2022-08-05T01:37:25.222Z,77.75
2022-08-05T01:39:46.453Z,77.68
2022-08-05T01:41:52.189Z,77.42
2022-08-05T01:43:57.026Z,77.70
2022-08-05T01:46:07.262Z,76.95
2022-08-05T01:48:20.722Z,76.10
2022-08-05T01:50:32.792Z,77.01
2022-08-05T01:52:38.552Z,77.04
2022-08-05T01:54:48.722Z,77.12
2022-08-05T01:58:13.193Z,77.42
2022-08-05T01:59:23.345Z,77.67
2022-08-05T02:01:28.157Z,77.99
2022-08-05T02:03:40.782Z,77.95
2022-08-05T02:05:45.109Z,78.01
2022-08-05T02:07:56.323Z,78.33
2022-08-05T02:10:05.862Z,78.47
2022-08-05T02:12:27.215Z,78.55
2022-08-05T02:14:34.455Z,78.39
2022-08-05T02:16:54.842Z,78.42
2022-08-05T02:19:34.200Z,77.80
2022-08-05T02:21:46.757Z,78.76
2022-08-05T02:23:56.813Z,78.88
2022-08-05T02:26:03.123Z,78.50
2022-08-05T02:28:08.923Z,78.67
2022-08-05T02:30:12.930Z,79.01
2022-08-05T02:32:24.192Z,78.60
2022-08-05T02:34:35.189Z,78.25
2022-08-05T02:36:59.939Z,78.81
2022-08-05T02:39:10.463Z,78.79
2022-08-05T02:41:17.862Z,78.39
2022-08-05T02:43:23.037Z,77.75
2022-08-05T02:45:26.987Z,77.92
2022-08-05T02:48:06.670Z,78.17
2022-08-05T02:49:56.240Z,78.97
2022-08-05T02:52:02.735Z,79.34
2022-08-05T02:54:07.132Z,78.89
2022-08-05T02:56:16.111Z,78.86
2022-08-05T02:58:23.205Z,78.92
2022-08-05T03:00:30.735Z,78.53
2022-08-05T03:02:39.685Z,78.65
2022-08-05T03:04:43.915Z,78.73
2022-08-05T03:06:57.087Z,77.94
2022-08-05T03:09:02.057Z,78.21
2022-08-05T03:11:57.447Z,78.16
2022-08-05T03:13:51.824Z,77.91
2022-08-05T03:16:03.574Z,78.02
2022-08-05T03:18:06.433Z,77.52
2022-08-05T03:20:10.888Z,77.68
2022-08-05T03:22:19.017Z,77.31
2022-08-05T03:24:35.601Z,76.92
2022-08-05T03:26:38.504Z,76.84
2022-08-05T03:28:41.156Z,76.33
2022-08-05T03:30:44.784Z,76.24
2022-08-05T03:32:49.978Z,76.09
2022-08-05T03:34:52.731Z,76.41
2022-08-05T03:36:55.377Z,74.94
2022-08-05T03:38:58.843Z,74.16
2022-08-05T03:41:08.422Z,74.53
2022-08-05T03:43:58.531Z,73.40
2022-08-05T03:45:57.254Z,72.42
2022-08-05T03:47:59.435Z,72.14
2022-08-05T03:50:02.659Z,72.00
2022-08-05T03:52:49.192Z,71.55
2022-08-05T03:55:00.468Z,71.25
2022-08-05T03:57:29.199Z,70.52
2022-08-05T03:59:54.809Z,70.78
2022-08-05T04:02:02.632Z,70.55
2022-08-05T04:04:09.960Z,71.00
2022-08-05T04:06:13.726Z,70.30
2022-08-05T04:08:35.141Z,69.93
2022-08-05T04:10:39.696Z,70.92
2022-08-05T04:14:45.180Z,70.81
2022-08-05T04:16:48.435Z,70.66
2022-08-05T04:18:54.034Z,71.02
2022-08-05T04:20:58.429Z,71.80
2022-08-05T04:23:01.165Z,70.64
2022-08-05T04:25:04.057Z,70.69
2022-08-05T04:27:06.723Z,70.56
2022-08-05T04:29:10.274Z,70.67
2022-08-05T04:31:12.960Z,70.64
2022-08-05T04:33:16.538Z,70.45
2022-08-05T04:36:15.604Z,70.49
2022-08-05T04:38:06.593Z,69.45
2022-08-05T04:40:10.528Z,70.35
2022-08-05T04:42:13.415Z,69.31
2022-08-05T04:44:29.559Z,68.99
2022-08-05T04:46:33.133Z,68.37
2022-08-05T04:48:35.676Z,68.13
2022-08-05T04:51:01.615Z,67.02
2022-08-05T04:53:05.674Z,66.29
2022-08-05T04:55:14.589Z,65.36
2022-08-05T04:57:17.938Z,65.77
2022-08-05T04:59:37.412Z,64.58
2022-08-05T05:02:35.306Z,64.43
2022-08-05T05:04:05.501Z,65.70
2022-08-05T05:06:39.450Z,64.32
2022-08-05T05:08:37.267Z,62.51
2022-08-05T05:10:56.126Z,61.75
2022-08-05T05:12:59.300Z,61.30
2022-08-05T05:15:06.076Z,60.43
2022-08-05T05:17:13.521Z,60.97
2022-08-05T05:19:19.329Z,60.00
2022-08-05T05:21:27.211Z,61.22
2022-08-05T05:23:39.385Z,59.52
2022-08-05T05:25:52.853Z,60.18
2022-08-05T05:27:56.234Z,60.30
2022-08-05T05:30:04.927Z,58.30
2022-08-05T05:32:08.119Z,57.32
2022-08-05T05:34:19.029Z,57.19
2022-08-05T05:36:28.527Z,56.31
2022-08-05T05:38:32.292Z,57.49
2022-08-05T05:40:35.125Z,56.70
2022-08-05T05:42:38.976Z,57.57
2022-08-05T05:44:43.146Z,57.03
2022-08-05T05:46:48.772Z,56.21
2022-08-05T05:48:53.777Z,53.54
2022-08-05T05:50:56.302Z,53.72
2022-08-05T05:52:58.899Z,53.42
2022-08-05T05:55:07.450Z,53.55
2022-08-05T05:57:19.295Z,53.67
2022-08-05T05:59:22.189Z,52.18
2022-08-05T06:01:25.386Z,51.33
2022-08-05T06:04:00.436Z,50.58
2022-08-05T06:06:06.879Z,50.04
2022-08-05T06:08:10.894Z,46.78
2022-08-05T06:10:13.971Z,46.73
2022-08-05T06:12:18.279Z,46.07
2022-08-05T06:14:22.314Z,45.21
2022-08-05T06:16:33.009Z,44.62
2022-08-05T06:18:39.940Z,44.52
2022-08-05T06:20:42.630Z,45.07
2022-08-05T06:22:50.640Z,44.87
2022-08-05T06:24:53.421Z,46.00
2022-08-05T06:26:56.292Z,43.41
2022-08-05T06:28:58.981Z,45.01
2022-08-05T06:31:10.875Z,45.35
2022-08-05T06:33:19.058Z,45.43
2022-08-05T06:36:07.777Z,44.73
2022-08-05T06:37:58.159Z,45.51
2022-08-05T06:40:03.186Z,43.40
2022-08-05T06:42:07.019Z,43.05
2022-08-05T06:44:09.970Z,42.53
2022-08-05T06:46:13.071Z,40.98
2022-08-05T06:48:52.960Z,42.18
2022-08-05T06:50:38.802Z,42.87
2022-08-05T06:52:41.813Z,43.43
2022-08-05T06:55:02.436Z,44.45
2022-08-05T06:57:58.097Z,43.32
2022-08-05T06:59:29.431Z,42.30
2022-08-05T07:01:42.664Z,40.73
2022-08-05T07:03:46.096Z,40.55
2022-08-05T07:05:49.011Z,41.80
2022-08-05T07:07:52.731Z,42.10
2022-08-05T07:09:58.263Z,43.26
2022-08-05T07:12:01.594Z,43.33
2022-08-05T07:14:28.906Z,43.97
2022-08-05T07:18:00.162Z,44.90
2022-08-05T07:19:16.034Z,43.68
2022-08-05T07:21:59.198Z,44.39
2022-08-05T07:24:01.221Z,43.64
2022-08-05T07:26:06.122Z,42.91
2022-08-05T07:28:11.790Z,42.03
2022-08-05T07:30:28.171Z,41.74
2022-08-05T07:32:39.478Z,42.11
2022-08-05T07:34:42.613Z,41.77
2022-08-05T07:36:45.291Z,43.21
2022-08-05T07:38:47.877Z,44.12
2022-08-05T07:40:55.540Z,41.84
2022-08-05T07:43:13.810Z,40.68
2022-08-05T07:45:56.812Z,41.47
2022-08-05T07:47:45.826Z,42.78
2022-08-05T07:49:54.543Z,43.19
2022-08-05T07:51:57.470Z,42.11
2022-08-05T07:54:02.286Z,43.62
2022-08-05T07:56:38.968Z,43.12
2022-08-05T07:58:54.627Z,42.98
2022-08-05T08:00:51.087Z,43.22
2022-08-05T08:03:13.811Z,45.80
2022-08-05T08:05:17.413Z,43.45
2022-08-05T08:07:22.763Z,41.41
2022-08-05T08:09:26.011Z,42.78
2022-08-05T08:11:47.498Z,41.98
2022-08-05T08:14:00.848Z,42.18
2022-08-05T08:16:50.014Z,42.49
2022-08-05T08:18:28.054Z,42.80
2022-08-05T08:20:43.820Z,43.36
2022-08-05T08:22:57.700Z,42.24
2022-08-05T08:25:03.509Z,43.83
2022-08-05T08:27:07.696Z,44.45
2022-08-05T08:29:45.165Z,43.62
2022-08-05T08:31:33.995Z,42.31
2022-08-05T08:33:37.886Z,42.08
2022-08-05T08:35:53.050Z,41.53
2022-08-05T08:38:07.520Z,40.69
2022-08-05T08:40:11.941Z,42.86
2022-08-05T08:42:46.802Z,41.71
2022-08-05T08:45:16.263Z,42.65
2022-08-05T08:47:47.454Z,42.43
2022-08-05T08:50:12.822Z,42.22
2022-08-05T08:52:14.878Z,40.98
2022-08-05T08:54:19.964Z,42.05
2022-08-05T08:56:27.351Z,43.04
2022-08-05T08:58:43.285Z,42.01
2022-08-05T09:00:49.075Z,40.29
2022-08-05T09:02:54.568Z,41.93
2022-08-05T09:05:16.920Z,40.14
2022-08-05T09:07:28.374Z,41.85
2022-08-05T09:09:35.603Z,44.00
2022-08-05T09:11:51.276Z,41.77
2022-08-05T09:14:09.345Z,42.15
2022-08-05T09:16:20.305Z,41.34
2022-08-05T09:18:23.194Z,41.13
2022-08-05T09:20:37.736Z,42.72
2022-08-05T09:23:05.159Z,41.42
2022-08-05T09:25:14.012Z,40.04
2022-08-05T09:28:04.418Z,40.31
2022-08-05T09:30:02.227Z,41.63
2022-08-05T09:32:41.545Z,39.62
2022-08-05T09:34:55.151Z,40.01
2022-08-05T09:36:59.799Z,41.31
2022-08-05T09:39:18.125Z,41.21
2022-08-05T09:41:25.256Z,40.46
2022-08-05T09:43:41.947Z,41.95
2022-08-05T09:46:07.277Z,41.18
2022-08-05T09:48:28.453Z,39.04
2022-08-05T09:50:38.901Z,40.47
2022-08-05T09:52:52.919Z,42.41
2022-08-05T09:55:57.383Z,42.27
2022-08-05T09:57:44.066Z,42.86
2022-08-05T09:59:48.264Z,42.89
2022-08-05T10:01:57.890Z,44.28
2022-08-05T10:04:12.483Z,44.71
2022-08-05T10:06:21.268Z,40.73
2022-08-05T10:08:37.726Z,39.83
2022-08-05T10:10:44.786Z,38.83
2022-08-05T10:12:56.620Z,39.46
2022-08-05T10:15:21.667Z,39.12
2022-08-05T10:17:37.827Z,39.61
2022-08-05T10:20:03.577Z,39.58
2022-08-05T10:22:09.123Z,39.24
2022-08-05T10:24:20.510Z,38.97
2022-08-05T10:26:32.619Z,39.23
2022-08-05T10:28:36.834Z,38.54
2022-08-05T10:32:46.881Z,38.79
2022-08-05T10:33:03.913Z,39.16
2022-08-05T10:35:07.294Z,39.49
2022-08-05T10:37:13.297Z,38.54
2022-08-05T10:39:59.180Z,35.85
2022-08-05T10:42:09.232Z,36.19
2022-08-05T10:44:18.402Z,36.15
2022-08-05T10:46:24.266Z,36.87
2022-08-05T10:48:58.164Z,36.71
2022-08-05T10:51:22.037Z,37.76
2022-08-05T10:53:55.620Z,35.68
2022-08-05T10:56:21.052Z,35.35
2022-08-05T10:58:47.759Z,36.01
2022-08-05T11:00:55.073Z,34.73
2022-08-05T11:03:22.991Z,33.30
2022-08-05T11:05:29.319Z,35.17
2022-08-05T11:08:01.240Z,33.97
2022-08-05T11:10:04.035Z,35.45
2022-08-05T11:12:37.298Z,35.13
2022-08-05T11:15:00.970Z,35.16
2022-08-05T11:17:57.014Z,36.31
2022-08-05T11:20:11.257Z,34.65
2022-08-05T11:22:42.255Z,35.10
2022-08-05T11:24:50.735Z,36.40
2022-08-05T11:27:51.206Z,33.92
2022-08-05T11:30:00.194Z,32.69
2022-08-05T11:32:28.622Z,31.43
2022-08-05T11:34:50.984Z,33.67
2022-08-05T11:36:57.183Z,32.34
2022-08-05T11:39:00.237Z,32.62
2022-08-05T11:41:36.800Z,33.69
2022-08-05T11:44:04.601Z,33.18
2022-08-05T11:46:14.968Z,32.38
2022-08-05T11:48:15.210Z,32.13
2022-08-05T11:50:18.335Z,31.92
2022-08-05T11:52:29.068Z,31.78
2022-08-05T11:54:38.233Z,31.80
2022-08-05T11:56:50.461Z,31.14
2022-08-05T11:58:54.606Z,31.96
2022-08-05T12:01:08.482Z,31.47
2022-08-05T12:03:23.949Z,30.68
2022-08-05T12:05:39.757Z,29.62
2022-08-05T12:08:03.577Z,29.65
2022-08-05T12:10:09.680Z,28.07
2022-08-05T12:12:20.999Z,30.32
2022-08-05T12:14:25.574Z,28.28
2022-08-05T12:16:38.386Z,27.95
2022-08-05T12:18:42.739Z,28.20
2022-08-05T12:20:54.819Z,27.69
2022-08-05T12:23:11.436Z,26.74
2022-08-05T12:25:14.514Z,26.81
2022-08-05T12:27:26.834Z,27.33
2022-08-05T12:29:37.936Z,25.55
2022-08-05T12:31:53.502Z,27.04
2022-08-05T12:33:57.489Z,27.02
2022-08-05T12:36:02.702Z,26.45
2022-08-05T12:38:07.340Z,26.56
2022-08-05T12:40:26.554Z,26.63
2022-08-05T12:42:31.576Z,27.03
2022-08-05T12:44:34.511Z,28.25
2022-08-05T12:46:39.102Z,27.41
2022-08-05T12:48:41.872Z,27.79
2022-08-05T12:52:10.273Z,27.18
2022-08-05T12:53:55.747Z,27.28
2022-08-05T12:55:58.565Z,27.15
2022-08-05T12:58:52.741Z,27.97
2022-08-05T13:02:02.758Z,28.16
2022-08-05T13:02:55.490Z,27.69
2022-08-05T13:04:58.698Z,27.80
2022-08-05T13:07:04.782Z,28.20
2022-08-05T13:09:14.356Z,27.06
2022-08-05T13:12:01.033Z,26.66
2022-08-05T13:14:05.273Z,26.16
2022-08-05T13:16:16.668Z,26.16
2022-08-05T13:18:20.533Z,24.48
2022-08-05T13:20:25.348Z,23.31
2022-08-05T13:22:30.944Z,24.54
2022-08-05T13:24:51.377Z,23.38
2022-08-05T13:26:56.405Z,23.62
2022-08-05T13:29:00.685Z,23.59
2022-08-05T13:31:14.040Z,23.72
2022-08-05T13:34:22.451Z,25.22
2022-08-05T13:35:47.625Z,24.96
2022-08-05T13:37:55.343Z,24.90
2022-08-05T13:40:15.115Z,24.89
2022-08-05T13:42:24.990Z,25.44
2022-08-05T13:44:27.709Z,25.90
2022-08-05T13:46:51.013Z,26.09
2022-08-05T13:48:57.664Z,26.91
2022-08-05T13:51:10.702Z,27.81
2022-08-05T13:53:15.789Z,28.33
2022-08-05T13:55:41.575Z,29.15
2022-08-05T13:57:50.620Z,28.62
2022-08-05T13:59:57.184Z,29.18
2022-08-05T14:02:01.029Z,27.89
2022-08-05T14:04:26.513Z,27.95
2022-08-05T14:06:29.353Z,28.72
2022-08-05T14:08:32.991Z,29.16
2022-08-05T14:10:37.549Z,29.65
2022-08-05T14:12:42.957Z,29.39
2022-08-05T14:14:51.351Z,29.77
2022-08-05T14:16:55.369Z,31.54
2022-08-05T14:19:04.421Z,32.11
2022-08-05T14:22:07.117Z,31.81
2022-08-05T14:23:36.297Z,31.74
2022-08-05T14:25:45.067Z,30.61
2022-08-05T14:27:49.611Z,30.78
2022-08-05T14:29:52.848Z,31.13
2022-08-05T14:32:13.764Z,30.56
2022-08-05T14:34:17.970Z,31.79
2022-08-05T14:36:26.459Z,31.54
2022-08-05T14:38:34.434Z,31.82
2022-08-05T14:40:38.897Z,32.60
2022-08-05T14:42:42.222Z,32.94
2022-08-05T14:44:46.004Z,32.94
2022-08-05T14:46:48.547Z,32.90
2022-08-05T14:48:51.301Z,31.84
2022-08-05T14:50:55.587Z,30.82
2022-08-05T14:52:59.946Z,31.12
2022-08-05T14:55:02.937Z,29.28
2022-08-05T14:57:09.838Z,28.99
2022-08-05T14:59:16.603Z,30.61
2022-08-05T15:01:24.217Z,32.87
2022-08-05T15:03:42.471Z,33.41
2022-08-05T15:06:07.326Z,31.25
2022-08-05T15:08:18.001Z,30.35
2022-08-05T15:10:34.242Z,30.27
2022-08-05T15:12:57.660Z,31.09
2022-08-05T15:14:59.815Z,31.38
2022-08-05T15:17:03.757Z,32.12
2022-08-05T15:19:06.654Z,32.77
2022-08-05T15:21:20.950Z,32.74
2022-08-05T15:23:23.877Z,33.13
2022-08-05T15:25:50.954Z,33.42
2022-08-05T15:27:52.326Z,32.88
2022-08-05T15:29:56.847Z,33.96
2022-08-05T15:32:03.372Z,35.35
2022-08-05T15:34:31.506Z,35.60
2022-08-05T15:36:31.234Z,37.52
2022-08-05T15:38:41.763Z,37.08
2022-08-05T15:41:20.324Z,38.42
2022-08-05T15:43:10.812Z,38.10
2022-08-05T15:45:23.174Z,39.13
2022-08-05T15:47:43.054Z,38.64
2022-08-05T15:49:53.755Z,39.03
2022-08-05T15:52:04.023Z,39.18
2022-08-05T15:54:16.768Z,39.62
2022-08-05T15:56:22.991Z,39.47
2022-08-05T15:58:25.629Z,40.38
2022-08-05T16:00:50.499Z,40.96
2022-08-05T16:02:51.885Z,41.40
2022-08-05T16:04:55.245Z,40.55
2022-08-05T16:06:57.752Z,40.56
2022-08-05T16:09:00.775Z,40.63
2022-08-05T16:11:04.530Z,40.58
2022-08-05T16:13:07.079Z,40.89
2022-08-05T16:15:10.778Z,40.87
2022-08-05T16:17:21.032Z,40.99
2022-08-05T16:20:02.822Z,41.95
2022-08-05T16:22:01.059Z,42.37
2022-08-05T16:24:06.484Z,42.19
2022-08-05T16:26:15.535Z,41.78
2022-08-05T16:28:19.744Z,41.16
2022-08-05T16:30:28.586Z,43.27
2022-08-05T16:32:32.140Z,43.99
2022-08-05T16:34:34.846Z,46.02
2022-08-05T16:36:37.355Z,43.90
2022-08-05T16:38:45.381Z,46.08
2022-08-05T16:41:01.400Z,44.42
2022-08-05T16:43:04.687Z,43.36
2022-08-05T16:46:04.636Z,46.11
2022-08-05T16:47:36.188Z,45.17
2022-08-05T16:49:43.472Z,45.13
2022-08-05T16:51:51.063Z,44.88
2022-08-05T16:54:03.141Z,45.03
2022-08-05T16:56:11.963Z,45.58
2022-08-05T16:58:14.867Z,45.24
2022-08-05T17:00:34.661Z,44.93
2022-08-05T17:02:37.957Z,46.03
2022-08-05T17:04:40.774Z,46.58
2022-08-05T17:06:43.330Z,47.33
2022-08-05T17:08:55.728Z,47.96
2022-08-05T17:10:58.300Z,48.33
2022-08-05T17:13:01.511Z,47.85
2022-08-05T17:15:07.649Z,47.29
2022-08-05T17:17:14.827Z,48.34
2022-08-05T17:19:17.997Z,48.52
2022-08-05T17:21:20.578Z,49.62
2022-08-05T17:24:06.008Z,48.13
2022-08-05T17:25:48.900Z,49.58
2022-08-05T17:27:54.135Z,49.03
2022-08-05T17:30:00.866Z,48.65
2022-08-05T17:32:08.278Z,48.78
2022-08-05T17:34:11.145Z,48.64
2022-08-05T17:36:32.534Z,48.54
2022-08-05T17:38:37.648Z,49.20
2022-08-05T17:40:42.476Z,49.97
2022-08-05T17:42:50.987Z,49.12
2022-08-05T17:44:54.784Z,49.56
2022-08-05T17:46:57.621Z,49.10
2022-08-05T17:49:00.169Z,50.29
2022-08-05T17:51:03.246Z,51.23
2022-08-05T17:53:11.945Z,51.20
2022-08-05T17:55:14.549Z,51.18
2022-08-05T17:57:18.258Z,51.46
2022-08-05T17:59:22.751Z,52.29
2022-08-05T18:01:25.940Z,51.30
2022-08-05T18:03:58.915Z,50.99
2022-08-05T18:05:53.615Z,52.12
2022-08-05T18:07:57.028Z,52.12
2022-08-05T18:10:02.066Z,51.94
2022-08-05T18:12:13.028Z,52.36
2022-08-05T18:14:25.042Z,52.31
2022-08-05T18:16:27.717Z,53.36
2022-08-05T18:18:30.497Z,53.02
2022-08-05T18:20:33.140Z,53.31
2022-08-05T18:22:46.208Z,52.63
2022-08-05T18:24:57.357Z,53.65
2022-08-05T18:26:59.966Z,53.24
2022-08-05T18:29:02.443Z,52.86
2022-08-05T18:31:06.327Z,53.46
2022-08-05T18:33:13.840Z,53.06
2022-08-05T18:35:17.313Z,53.54
2022-08-05T18:37:34.229Z,53.83
2022-08-05T18:40:34.546Z,54.10
2022-08-05T18:42:10.917Z,54.21
2022-08-05T18:44:14.036Z,53.88
2022-08-05T18:46:37.162Z,54.13
2022-08-05T18:48:43.834Z,54.31
2022-08-05T18:52:02.884Z,54.13
2022-08-05T18:53:29.647Z,53.96
2022-08-05T18:55:37.262Z,54.72
2022-08-05T18:57:49.894Z,54.00
2022-08-05T19:00:01.395Z,53.58
2022-08-05T19:02:26.737Z,53.88
2022-08-05T19:04:30.739Z,54.77
2022-08-05T19:06:44.696Z,53.77
2022-08-05T19:08:48.331Z,53.17
2022-08-05T19:10:51.092Z,53.21
2022-08-05T19:12:53.913Z,54.17
2022-08-05T19:14:59.785Z,52.86
2022-08-05T19:17:06.347Z,53.23
2022-08-05T19:19:10.264Z,53.64
2022-08-05T19:21:16.001Z,53.76
2022-08-05T19:24:05.771Z,54.34
2022-08-05T19:25:43.541Z,53.66
2022-08-05T19:27:49.855Z,53.08
2022-08-05T19:29:56.667Z,53.15
2022-08-05T19:32:01.622Z,52.90
2022-08-05T19:34:04.380Z,53.59
2022-08-05T19:36:09.057Z,53.33
2022-08-05T19:38:11.795Z,53.23
2022-08-05T19:40:17.166Z,52.75
2022-08-05T19:42:35.780Z,53.84
2022-08-05T19:44:45.053Z,53.17
2022-08-05T19:46:50.151Z,54.50
2022-08-05T19:48:53.692Z,52.49
2022-08-05T19:50:57.877Z,52.38
2022-08-05T19:53:09.666Z,52.25
2022-08-05T19:56:14.765Z,52.23
2022-08-05T19:57:49.257Z,52.50
2022-08-05T20:00:02.544Z,52.56
2022-08-05T20:02:07.400Z,52.91
2022-08-05T20:04:09.955Z,52.98
2022-08-05T20:06:16.035Z,53.22
2022-08-05T20:08:31.596Z,53.94
2022-08-05T20:10:34.200Z,54.46
2022-08-05T20:12:39.398Z,53.86
2022-08-05T20:14:52.713Z,54.18
2022-08-05T20:16:56.162Z,54.15
2022-08-05T20:18:59.274Z,53.50
2022-08-05T20:21:06.810Z,54.01
2022-08-05T20:23:09.565Z,55.01
2022-08-05T20:25:15.045Z,53.31
2022-08-05T20:27:18.323Z,53.83
2022-08-05T20:29:27.307Z,53.48
2022-08-05T20:31:42.086Z,54.23
2022-08-05T20:33:53.533Z,54.66
2022-08-05T20:35:56.762Z,54.75
2022-08-05T20:38:06.385Z,54.47
2022-08-05T20:40:11.322Z,54.78
2022-08-05T20:42:13.860Z,54.90
2022-08-05T20:44:29.789Z,55.42
2022-08-05T20:46:33.692Z,55.67
2022-08-05T20:48:37.127Z,56.30
2022-08-05T20:50:45.250Z,56.34
2022-08-05T20:52:48.181Z,56.50
2022-08-05T20:54:59.518Z,56.21
2022-08-05T20:57:24.664Z,56.24
2022-08-05T21:00:10.999Z,56.32
2022-08-05T21:02:02.852Z,56.57
2022-08-05T21:04:12.484Z,56.64
2022-08-05T21:06:28.555Z,57.10
2022-08-05T21:08:42.346Z,57.39
2022-08-05T21:10:48.823Z,57.77
2022-08-05T21:13:08.935Z,58.00
2022-08-05T21:15:17.010Z,57.22
2022-08-05T21:17:19.979Z,56.68
2022-08-05T21:19:24.045Z,56.75
2022-08-05T21:21:26.533Z,57.02
2022-08-05T21:23:42.408Z,58.45
2022-08-05T21:25:45.290Z,57.54
2022-08-05T21:27:47.835Z,58.70
2022-08-05T21:29:56.411Z,57.94
2022-08-05T21:31:59.129Z,58.82
2022-08-05T21:34:01.630Z,58.85
2022-08-05T21:36:04.685Z,58.96
2022-08-05T21:38:07.552Z,58.64
2022-08-05T21:40:13.681Z,58.54
2022-08-05T21:42:41.221Z,59.14
2022-08-05T21:44:39.436Z,59.19
2022-08-05T21:46:41.942Z,59.23
2022-08-05T21:48:45.524Z,59.13
2022-08-05T21:50:53.011Z,58.69
2022-08-05T21:52:59.099Z,58.90
2022-08-05T21:55:10.940Z,58.94
2022-08-05T21:57:31.384Z,59.61
2022-08-05T22:00:01.599Z,59.60
2022-08-05T22:01:57.654Z,59.63
2022-08-05T22:04:00.206Z,59.17
2022-08-05T22:06:02.763Z,59.73
2022-08-05T22:08:07.859Z,59.88
2022-08-05T22:10:27.319Z,60.47
2022-08-05T22:12:32.216Z,60.62
2022-08-05T22:14:37.742Z,60.82
2022-08-05T22:16:51.125Z,60.51
2022-08-05T22:18:58.790Z,60.83
2022-08-05T22:21:04.086Z,60.77
2022-08-05T22:24:03.061Z,60.15
2022-08-05T22:26:10.872Z,60.01
2022-08-05T22:28:14.346Z,60.60
2022-08-05T22:30:20.778Z,60.08
2022-08-05T22:32:23.641Z,60.49
2022-08-05T22:34:28.790Z,60.69
2022-08-05T22:36:31.860Z,60.68
2022-08-05T22:38:34.432Z,60.96
2022-08-05T22:40:37.101Z,60.35
2022-08-05T22:42:41.081Z,60.98
2022-08-05T22:44:48.523Z,61.17
2022-08-05T22:46:58.193Z,60.58
2022-08-05T22:49:01.174Z,60.51
2022-08-05T22:51:07.083Z,60.67
2022-08-05T22:53:10.524Z,61.10
2022-08-05T22:55:21.434Z,61.21
2022-08-05T22:57:24.256Z,61.47
2022-08-05T22:59:43.569Z,61.91
2022-08-05T23:02:04.480Z,61.57
2022-08-05T23:04:08.929Z,61.59
2022-08-05T23:06:11.493Z,61.89
2022-08-05T23:08:14.296Z,61.92
2022-08-05T23:10:19.948Z,62.22
2022-08-05T23:12:24.444Z,61.67
2022-08-05T23:14:32.300Z,61.30
2022-08-05T23:16:53.984Z,61.52
2022-08-05T23:18:56.705Z,61.72
2022-08-05T23:21:00.619Z,62.16
2022-08-05T23:23:03.619Z,62.35
2022-08-05T23:25:09.193Z,62.88
2022-08-05T23:27:14.893Z,63.41
2022-08-05T23:29:17.787Z,64.82
2022-08-05T23:31:22.007Z,64.67
2022-08-05T23:33:26.563Z,64.70
2022-08-05T23:35:48.288Z,65.27
2022-08-05T23:37:52.088Z,66.05
2022-08-05T23:39:55.739Z,65.95
2022-08-05T23:41:58.278Z,65.78
2022-08-05T23:44:06.522Z,66.69
2022-08-05T23:46:19.650Z,67.84
2022-08-05T23:48:23.016Z,67.81
2022-08-05T23:50:28.945Z,68.55
2022-08-05T23:52:35.846Z,68.26
2022-08-05T23:54:38.909Z,68.28
2022-08-05T23:56:41.575Z,68.56
2022-08-05T23:58:44.828Z,69.16
